sensor_id;sensor_type;location;lat;lon;timestamp;temperature;humidity
23544;DHT22;11950;51.230;4.012;2023-04-03T00:00:33;4.70;99.90
23544;DHT22;11950;51.230;4.012;2023-04-03T00:03:00;4.70;99.90
23544;DHT22;11950;51.230;4.012;2023-04-03T00:05:26;4.70;99.90
23544;DHT22;11950;51.230;4.012;2023-04-03T00:07:52;4.70;99.90
23544;DHT22;11950;51.230;4.012;2023-04-03T00:10:19;4.70;99.90
23544;DHT22;11950;51.230;4.012;2023-04-03T00:12:45;4.70;99.90
23544;DHT22;11950;51.230;4.012;2023-04-03T00:15:11;4.70;99.90
23544;DHT22;11950;51.230;4.012;2023-04-03T00:17:38;4.70;99.90
23544;DHT22;11950;51.230;4.012;2023-04-03T00:20:05;4.70;99.90
23544;DHT22;11950;51.230;4.012;2023-04-03T00:22:31;4.60;99.90
23544;DHT22;11950;51.230;4.012;2023-04-03T00:24:57;4.60;99.90
23544;DHT22;11950;51.230;4.012;2023-04-03T00:27:24;4.50;99.90
23544;DHT22;11950;51.230;4.012;2023-04-03T00:29:50;4.60;99.90
23544;DHT22;11950;51.230;4.012;2023-04-03T00:32:16;4.50;99.90
23544;DHT22;11950;51.230;4.012;2023-04-03T00:34:43;4.50;99.90
23544;DHT22;11950;51.230;4.012;2023-04-03T00:37:09;4.50;99.90
23544;DHT22;11950;51.230;4.012;2023-04-03T00:39:36;4.50;99.90
23544;DHT22;11950;51.230;4.012;2023-04-03T00:42:02;4.60;99.90
23544;DHT22;11950;51.230;4.012;2023-04-03T00:47:03;4.40;99.90
23544;DHT22;11950;51.230;4.012;2023-04-03T00:49:30;4.40;99.90
23544;DHT22;11950;51.230;4.012;2023-04-03T00:51:57;4.40;99.90
23544;DHT22;11950;51.230;4.012;2023-04-03T00:54:25;4.40;99.90
23544;DHT22;11950;51.230;4.012;2023-04-03T00:56:53;4.40;99.90
23544;DHT22;11950;51.230;4.012;2023-04-03T00:59:25;4.30;99.90
23544;DHT22;11950;51.230;4.012;2023-04-03T01:01:54;4.30;99.90
23544;DHT22;11950;51.230;4.012;2023-04-03T01:04:33;4.30;99.90
23544;DHT22;11950;51.230;4.012;2023-04-03T01:07:03;4.30;99.90
23544;DHT22;11950;51.230;4.012;2023-04-03T01:09:31;4.30;99.90
23544;DHT22;11950;51.230;4.012;2023-04-03T01:12:18;4.30;99.90
23544;DHT22;11950;51.230;4.012;2023-04-03T01:15:30;4.30;99.90
23544;DHT22;11950;51.230;4.012;2023-04-03T01:17:40;4.30;99.90
23544;DHT22;11950;51.230;4.012;2023-04-03T01:25:57;4.30;99.90
23544;DHT22;11950;51.230;4.012;2023-04-03T01:28:33;4.30;99.90
23544;DHT22;11950;51.230;4.012;2023-04-03T01:33:56;4.30;99.90
23544;DHT22;11950;51.230;4.012;2023-04-03T01:36:26;4.30;99.90
23544;DHT22;11950;51.230;4.012;2023-04-03T01:38:54;4.20;99.90
23544;DHT22;11950;51.230;4.012;2023-04-03T01:41:22;4.30;99.90
23544;DHT22;11950;51.230;4.012;2023-04-03T01:43:51;4.30;99.90
23544;DHT22;11950;51.230;4.012;2023-04-03T01:46:19;4.20;99.90
23544;DHT22;11950;51.230;4.012;2023-04-03T01:48:46;4.20;99.90
23544;DHT22;11950;51.230;4.012;2023-04-03T01:51:13;4.20;99.90
23544;DHT22;11950;51.230;4.012;2023-04-03T01:53:39;4.20;99.90
23544;DHT22;11950;51.230;4.012;2023-04-03T01:56:06;4.20;99.90
23544;DHT22;11950;51.230;4.012;2023-04-03T01:58:33;4.20;99.90
23544;DHT22;11950;51.230;4.012;2023-04-03T02:00:59;4.10;99.90
23544;DHT22;11950;51.230;4.012;2023-04-03T02:03:26;4.10;99.90
23544;DHT22;11950;51.230;4.012;2023-04-03T02:05:52;4.10;99.90
23544;DHT22;11950;51.230;4.012;2023-04-03T02:08:19;4.20;99.90
23544;DHT22;11950;51.230;4.012;2023-04-03T02:10:49;4.20;99.90
23544;DHT22;11950;51.230;4.012;2023-04-03T02:13:17;4.20;99.90
23544;DHT22;11950;51.230;4.012;2023-04-03T02:15:44;4.20;99.90
23544;DHT22;11950;51.230;4.012;2023-04-03T02:18:12;4.10;99.90
23544;DHT22;11950;51.230;4.012;2023-04-03T02:20:38;4.10;99.90
23544;DHT22;11950;51.230;4.012;2023-04-03T02:23:05;4.10;99.90
23544;DHT22;11950;51.230;4.012;2023-04-03T02:25:32;4.10;99.90
23544;DHT22;11950;51.230;4.012;2023-04-03T02:27:58;4.10;99.90
23544;DHT22;11950;51.230;4.012;2023-04-03T02:30:25;4.10;99.90
23544;DHT22;11950;51.230;4.012;2023-04-03T02:32:52;4.10;99.90
23544;DHT22;11950;51.230;4.012;2023-04-03T02:35:19;4.10;99.90
23544;DHT22;11950;51.230;4.012;2023-04-03T02:37:46;4.10;99.90
23544;DHT22;11950;51.230;4.012;2023-04-03T02:40:13;4.00;99.90
23544;DHT22;11950;51.230;4.012;2023-04-03T02:42:39;4.10;99.90
23544;DHT22;11950;51.230;4.012;2023-04-03T02:45:06;4.00;99.90
23544;DHT22;11950;51.230;4.012;2023-04-03T02:47:33;4.00;99.90
23544;DHT22;11950;51.230;4.012;2023-04-03T02:49:59;4.00;99.90
23544;DHT22;11950;51.230;4.012;2023-04-03T02:52:26;4.00;99.90
23544;DHT22;11950;51.230;4.012;2023-04-03T02:54:55;4.00;99.90
23544;DHT22;11950;51.230;4.012;2023-04-03T02:57:21;3.90;99.90
23544;DHT22;11950;51.230;4.012;2023-04-03T02:59:48;3.90;99.90
23544;DHT22;11950;51.230;4.012;2023-04-03T03:02:14;3.90;99.90
23544;DHT22;11950;51.230;4.012;2023-04-03T03:04:41;3.90;99.90
23544;DHT22;11950;51.230;4.012;2023-04-03T03:07:07;3.90;99.90
23544;DHT22;11950;51.230;4.012;2023-04-03T03:09:33;3.90;99.90
23544;DHT22;11950;51.230;4.012;2023-04-03T03:12:00;3.90;99.90
23544;DHT22;11950;51.230;4.012;2023-04-03T03:14:26;3.80;99.90
23544;DHT22;11950;51.230;4.012;2023-04-03T03:16:52;3.90;99.90
23544;DHT22;11950;51.230;4.012;2023-04-03T03:19:19;3.90;99.90
23544;DHT22;11950;51.230;4.012;2023-04-03T03:21:45;3.90;99.90
23544;DHT22;11950;51.230;4.012;2023-04-03T03:24:11;3.90;99.90
23544;DHT22;11950;51.230;4.012;2023-04-03T03:26:38;3.90;99.90
23544;DHT22;11950;51.230;4.012;2023-04-03T03:29:05;3.90;99.90
23544;DHT22;11950;51.230;4.012;2023-04-03T03:31:32;3.90;99.90
23544;DHT22;11950;51.230;4.012;2023-04-03T03:33:58;3.90;99.90
23544;DHT22;11950;51.230;4.012;2023-04-03T03:36:24;3.90;99.90
23544;DHT22;11950;51.230;4.012;2023-04-03T03:38:51;3.90;99.90
23544;DHT22;11950;51.230;4.012;2023-04-03T03:41:17;3.90;99.90
23544;DHT22;11950;51.230;4.012;2023-04-03T03:43:44;3.90;99.90
23544;DHT22;11950;51.230;4.012;2023-04-03T03:46:13;3.90;99.90
23544;DHT22;11950;51.230;4.012;2023-04-03T03:48:39;3.90;99.90
23544;DHT22;11950;51.230;4.012;2023-04-03T03:51:05;3.80;99.90
23544;DHT22;11950;51.230;4.012;2023-04-03T03:53:35;3.80;99.90
23544;DHT22;11950;51.230;4.012;2023-04-03T03:56:06;3.80;99.90
23544;DHT22;11950;51.230;4.012;2023-04-03T03:58:35;3.90;99.90
23544;DHT22;11950;51.230;4.012;2023-04-03T04:01:03;3.80;99.90
23544;DHT22;11950;51.230;4.012;2023-04-03T04:03:32;3.80;99.90
23544;DHT22;11950;51.230;4.012;2023-04-03T04:05:59;3.80;99.90
23544;DHT22;11950;51.230;4.012;2023-04-03T04:08:26;3.80;99.90
23544;DHT22;11950;51.230;4.012;2023-04-03T04:10:53;3.70;99.90
23544;DHT22;11950;51.230;4.012;2023-04-03T04:13:19;3.70;99.90
23544;DHT22;11950;51.230;4.012;2023-04-03T04:15:46;3.70;99.90
23544;DHT22;11950;51.230;4.012;2023-04-03T04:18:14;3.70;99.90
23544;DHT22;11950;51.230;4.012;2023-04-03T04:20:45;3.80;99.90
23544;DHT22;11950;51.230;4.012;2023-04-03T04:23:11;3.70;99.90
23544;DHT22;11950;51.230;4.012;2023-04-03T04:25:38;3.70;99.90
23544;DHT22;11950;51.230;4.012;2023-04-03T04:28:05;3.60;99.90
23544;DHT22;11950;51.230;4.012;2023-04-03T04:30:32;3.60;99.90
23544;DHT22;11950;51.230;4.012;2023-04-03T04:32:58;3.60;99.90
23544;DHT22;11950;51.230;4.012;2023-04-03T04:35:25;3.60;99.90
23544;DHT22;11950;51.230;4.012;2023-04-03T04:37:52;3.60;99.90
23544;DHT22;11950;51.230;4.012;2023-04-03T04:40:19;3.60;99.90
23544;DHT22;11950;51.230;4.012;2023-04-03T04:42:46;3.60;99.90
23544;DHT22;11950;51.230;4.012;2023-04-03T04:45:13;3.60;99.90
23544;DHT22;11950;51.230;4.012;2023-04-03T04:47:41;3.60;99.90
23544;DHT22;11950;51.230;4.012;2023-04-03T04:50:09;3.60;99.90
23544;DHT22;11950;51.230;4.012;2023-04-03T04:52:35;3.60;99.90
23544;DHT22;11950;51.230;4.012;2023-04-03T04:55:03;3.50;99.90
23544;DHT22;11950;51.230;4.012;2023-04-03T04:57:30;3.60;99.90
23544;DHT22;11950;51.230;4.012;2023-04-03T04:59:58;3.60;99.90
23544;DHT22;11950;51.230;4.012;2023-04-03T05:02:24;3.50;99.90
23544;DHT22;11950;51.230;4.012;2023-04-03T05:04:51;3.50;99.90
23544;DHT22;11950;51.230;4.012;2023-04-03T05:07:22;3.50;99.90
23544;DHT22;11950;51.230;4.012;2023-04-03T05:09:49;3.50;99.90
23544;DHT22;11950;51.230;4.012;2023-04-03T05:12:16;3.50;99.90
23544;DHT22;11950;51.230;4.012;2023-04-03T05:14:49;3.50;99.90
23544;DHT22;11950;51.230;4.012;2023-04-03T05:17:16;3.50;99.90
23544;DHT22;11950;51.230;4.012;2023-04-03T05:19:48;3.50;99.90
23544;DHT22;11950;51.230;4.012;2023-04-03T05:22:15;3.50;99.90
23544;DHT22;11950;51.230;4.012;2023-04-03T05:24:41;5.40;99.90
23544;DHT22;11950;51.230;4.012;2023-04-03T05:27:08;3.50;99.90
23544;DHT22;11950;51.230;4.012;2023-04-03T05:29:38;3.50;99.90
23544;DHT22;11950;51.230;4.012;2023-04-03T05:32:05;3.50;99.90
23544;DHT22;11950;51.230;4.012;2023-04-03T05:34:32;3.50;99.90
23544;DHT22;11950;51.230;4.012;2023-04-03T05:36:59;3.50;99.90
23544;DHT22;11950;51.230;4.012;2023-04-03T05:39:28;3.50;99.90
23544;DHT22;11950;51.230;4.012;2023-04-03T05:41:54;3.50;99.90
23544;DHT22;11950;51.230;4.012;2023-04-03T05:44:21;3.50;99.90
23544;DHT22;11950;51.230;4.012;2023-04-03T05:46:49;3.50;99.90
23544;DHT22;11950;51.230;4.012;2023-04-03T05:49:16;3.50;99.90
23544;DHT22;11950;51.230;4.012;2023-04-03T05:51:43;3.50;99.90
23544;DHT22;11950;51.230;4.012;2023-04-03T05:54:23;3.50;99.90
23544;DHT22;11950;51.230;4.012;2023-04-03T05:56:51;3.60;99.90
23544;DHT22;11950;51.230;4.012;2023-04-03T05:59:21;3.70;99.90
23544;DHT22;11950;51.230;4.012;2023-04-03T06:01:49;3.90;99.90
23544;DHT22;11950;51.230;4.012;2023-04-03T06:04:16;4.00;99.90
23544;DHT22;11950;51.230;4.012;2023-04-03T06:06:48;4.10;99.90
23544;DHT22;11950;51.230;4.012;2023-04-03T06:09:15;4.30;99.90
23544;DHT22;11950;51.230;4.012;2023-04-03T06:11:42;4.50;99.90
23544;DHT22;11950;51.230;4.012;2023-04-03T06:14:09;4.60;99.90
23544;DHT22;11950;51.230;4.012;2023-04-03T06:16:35;4.60;99.90
23544;DHT22;11950;51.230;4.012;2023-04-03T06:19:01;4.70;99.90
23544;DHT22;11950;51.230;4.012;2023-04-03T06:21:28;4.70;99.90
23544;DHT22;11950;51.230;4.012;2023-04-03T06:23:55;4.80;99.90
23544;DHT22;11950;51.230;4.012;2023-04-03T06:26:21;4.80;99.90
23544;DHT22;11950;51.230;4.012;2023-04-03T06:28:48;5.10;99.90
23544;DHT22;11950;51.230;4.012;2023-04-03T06:31:14;5.40;99.90
23544;DHT22;11950;51.230;4.012;2023-04-03T06:33:41;5.50;99.90
23544;DHT22;11950;51.230;4.012;2023-04-03T06:36:09;5.70;99.90
23544;DHT22;11950;51.230;4.012;2023-04-03T06:38:36;5.80;99.90
23544;DHT22;11950;51.230;4.012;2023-04-03T06:41:02;6.00;99.90
23544;DHT22;11950;51.230;4.012;2023-04-03T06:43:29;6.30;99.90
23544;DHT22;11950;51.230;4.012;2023-04-03T06:45:57;6.60;99.90
23544;DHT22;11950;51.230;4.012;2023-04-03T06:48:23;6.90;99.90
23544;DHT22;11950;51.230;4.012;2023-04-03T06:50:50;7.20;99.90
23544;DHT22;11950;51.230;4.012;2023-04-03T06:53:16;7.40;99.90
23544;DHT22;11950;51.230;4.012;2023-04-03T06:55:42;7.70;99.90
23544;DHT22;11950;51.230;4.012;2023-04-03T06:58:09;8.10;99.90
23544;DHT22;11950;51.230;4.012;2023-04-03T07:00:35;8.30;99.90
23544;DHT22;11950;51.230;4.012;2023-04-03T07:03:01;8.50;99.90
23544;DHT22;11950;51.230;4.012;2023-04-03T07:05:28;8.60;99.90
23544;DHT22;11950;51.230;4.012;2023-04-03T07:07:54;8.60;99.90
23544;DHT22;11950;51.230;4.012;2023-04-03T07:10:21;8.60;99.90
23544;DHT22;11950;51.230;4.012;2023-04-03T07:12:47;8.70;99.90
23544;DHT22;11950;51.230;4.012;2023-04-03T07:15:13;8.80;99.90
23544;DHT22;11950;51.230;4.012;2023-04-03T07:17:40;8.80;99.90
23544;DHT22;11950;51.230;4.012;2023-04-03T07:20:07;8.70;99.90
23544;DHT22;11950;51.230;4.012;2023-04-03T07:22:34;8.70;99.90
23544;DHT22;11950;51.230;4.012;2023-04-03T07:25:00;8.70;99.90
23544;DHT22;11950;51.230;4.012;2023-04-03T07:27:28;8.70;99.90
23544;DHT22;11950;51.230;4.012;2023-04-03T07:29:54;8.80;99.90
23544;DHT22;11950;51.230;4.012;2023-04-03T07:32:22;8.90;99.90
23544;DHT22;11950;51.230;4.012;2023-04-03T07:34:48;8.90;99.90
23544;DHT22;11950;51.230;4.012;2023-04-03T07:37:14;9.00;99.90
23544;DHT22;11950;51.230;4.012;2023-04-03T07:39:43;9.10;99.90
23544;DHT22;11950;51.230;4.012;2023-04-03T07:42:10;9.10;99.90
23544;DHT22;11950;51.230;4.012;2023-04-03T07:44:38;9.10;99.90
23544;DHT22;11950;51.230;4.012;2023-04-03T07:47:04;9.20;99.90
23544;DHT22;11950;51.230;4.012;2023-04-03T07:49:31;9.20;99.90
23544;DHT22;11950;51.230;4.012;2023-04-03T07:51:58;9.40;99.90
23544;DHT22;11950;51.230;4.012;2023-04-03T07:54:25;9.50;99.90
23544;DHT22;11950;51.230;4.012;2023-04-03T07:56:51;9.70;99.90
23544;DHT22;11950;51.230;4.012;2023-04-03T07:59:18;9.60;99.90
23544;DHT22;11950;51.230;4.012;2023-04-03T08:01:44;9.50;99.90
23544;DHT22;11950;51.230;4.012;2023-04-03T08:04:10;9.60;99.90
23544;DHT22;11950;51.230;4.012;2023-04-03T08:06:36;9.70;99.90
23544;DHT22;11950;51.230;4.012;2023-04-03T08:09:03;9.70;99.90
23544;DHT22;11950;51.230;4.012;2023-04-03T08:11:30;9.70;99.90
23544;DHT22;11950;51.230;4.012;2023-04-03T08:13:57;10.90;99.90
23544;DHT22;11950;51.230;4.012;2023-04-03T08:16:24;9.90;99.90
23544;DHT22;11950;51.230;4.012;2023-04-03T08:18:54;9.90;99.90
23544;DHT22;11950;51.230;4.012;2023-04-03T08:21:21;9.90;99.90
23544;DHT22;11950;51.230;4.012;2023-04-03T08:23:49;10.00;99.90
23544;DHT22;11950;51.230;4.012;2023-04-03T08:26:19;10.00;99.90
23544;DHT22;11950;51.230;4.012;2023-04-03T08:28:48;10.10;99.90
23544;DHT22;11950;51.230;4.012;2023-04-03T08:31:17;10.20;99.90
23544;DHT22;11950;51.230;4.012;2023-04-03T08:33:45;10.20;99.90
23544;DHT22;11950;51.230;4.012;2023-04-03T08:36:22;10.10;99.90
23544;DHT22;11950;51.230;4.012;2023-04-03T08:38:50;10.40;99.90
23544;DHT22;11950;51.230;4.012;2023-04-03T08:41:37;10.60;99.90
23544;DHT22;11950;51.230;4.012;2023-04-03T08:49:33;11.10;99.90
23544;DHT22;11950;51.230;4.012;2023-04-03T08:52:05;11.10;99.90
23544;DHT22;11950;51.230;4.012;2023-04-03T08:54:40;11.30;99.90
23544;DHT22;11950;51.230;4.012;2023-04-03T08:57:11;11.30;99.90
23544;DHT22;11950;51.230;4.012;2023-04-03T08:59:39;11.50;99.90
23544;DHT22;11950;51.230;4.012;2023-04-03T09:02:33;11.40;99.90
23544;DHT22;11950;51.230;4.012;2023-04-03T09:05:05;11.20;99.90
23544;DHT22;11950;51.230;4.012;2023-04-03T09:07:38;11.10;99.90
23544;DHT22;11950;51.230;4.012;2023-04-03T09:10:06;11.20;99.90
23544;DHT22;11950;51.230;4.012;2023-04-03T09:12:38;11.20;99.90
23544;DHT22;11950;51.230;4.012;2023-04-03T09:15:22;11.20;99.90
23544;DHT22;11950;51.230;4.012;2023-04-03T09:23:27;11.30;99.90
23544;DHT22;11950;51.230;4.012;2023-04-03T09:26:01;11.20;99.90
23544;DHT22;11950;51.230;4.012;2023-04-03T09:28:30;11.20;99.90
23544;DHT22;11950;51.230;4.012;2023-04-03T09:31:00;11.20;99.90
23544;DHT22;11950;51.230;4.012;2023-04-03T09:33:27;11.20;99.90
23544;DHT22;11950;51.230;4.012;2023-04-03T09:35:54;11.20;99.90
23544;DHT22;11950;51.230;4.012;2023-04-03T09:38:21;11.20;99.90
23544;DHT22;11950;51.230;4.012;2023-04-03T09:41:04;11.10;99.90
23544;DHT22;11950;51.230;4.012;2023-04-03T09:43:33;11.10;99.90
23544;DHT22;11950;51.230;4.012;2023-04-03T09:48:51;11.00;99.90
23544;DHT22;11950;51.230;4.012;2023-04-03T09:51:18;11.10;99.90
23544;DHT22;11950;51.230;4.012;2023-04-03T09:53:44;11.20;99.90
23544;DHT22;11950;51.230;4.012;2023-04-03T09:59:05;11.20;99.90
23544;DHT22;11950;51.230;4.012;2023-04-03T10:01:39;11.20;99.90
23544;DHT22;11950;51.230;4.012;2023-04-03T10:04:13;11.20;99.90
23544;DHT22;11950;51.230;4.012;2023-04-03T10:09:27;11.40;99.90
23544;DHT22;11950;51.230;4.012;2023-04-03T10:14:23;11.40;99.90
23544;DHT22;11950;51.230;4.012;2023-04-03T10:20:22;11.30;99.90
23544;DHT22;11950;51.230;4.012;2023-04-03T10:35:37;11.50;99.90
23544;DHT22;11950;51.230;4.012;2023-04-03T10:41:12;11.50;99.90
23544;DHT22;11950;51.230;4.012;2023-04-03T10:46:55;11.70;99.90
23544;DHT22;11950;51.230;4.012;2023-04-03T10:49:20;11.70;99.90
23544;DHT22;11950;51.230;4.012;2023-04-03T10:52:06;11.70;99.90
23544;DHT22;11950;51.230;4.012;2023-04-03T10:54:55;11.70;99.90
23544;DHT22;11950;51.230;4.012;2023-04-03T10:57:24;11.90;99.90
23544;DHT22;11950;51.230;4.012;2023-04-03T11:00:19;11.90;99.90
23544;DHT22;11950;51.230;4.012;2023-04-03T11:02:56;11.90;99.90
23544;DHT22;11950;51.230;4.012;2023-04-03T11:05:43;12.00;99.90
23544;DHT22;11950;51.230;4.012;2023-04-03T11:08:35;12.00;99.90
23544;DHT22;11950;51.230;4.012;2023-04-03T11:11:11;12.10;99.90
23544;DHT22;11950;51.230;4.012;2023-04-03T11:13:57;12.20;99.80
23544;DHT22;11950;51.230;4.012;2023-04-03T11:16:30;12.10;99.90
23544;DHT22;11950;51.230;4.012;2023-04-03T11:19:02;12.10;99.90
23544;DHT22;11950;51.230;4.012;2023-04-03T11:21:37;12.20;99.90
23544;DHT22;11950;51.230;4.012;2023-04-03T11:24:15;12.20;98.80
23544;DHT22;11950;51.230;4.012;2023-04-03T11:26:43;12.10;98.20
23544;DHT22;11950;51.230;4.012;2023-04-03T11:29:14;12.20;97.60
23544;DHT22;11950;51.230;4.012;2023-04-03T11:32:08;12.10;97.30
23544;DHT22;11950;51.230;4.012;2023-04-03T11:34:41;12.20;97.90
23544;DHT22;11950;51.230;4.012;2023-04-03T11:37:34;12.20;97.40
23544;DHT22;11950;51.230;4.012;2023-04-03T11:42:48;12.30;96.80
23544;DHT22;11950;51.230;4.012;2023-04-03T11:45:24;12.30;97.30
23544;DHT22;11950;51.230;4.012;2023-04-03T11:47:54;12.30;96.00
23544;DHT22;11950;51.230;4.012;2023-04-03T12:05:55;12.40;95.10
23544;DHT22;11950;51.230;4.012;2023-04-03T12:08:28;12.40;94.60
23544;DHT22;11950;51.230;4.012;2023-04-03T12:14:01;12.50;94.80
23544;DHT22;11950;51.230;4.012;2023-04-03T12:22:14;12.80;94.80
23544;DHT22;11950;51.230;4.012;2023-04-03T12:25:01;12.90;94.20
23544;DHT22;11950;51.230;4.012;2023-04-03T12:27:47;13.00;93.30
23544;DHT22;11950;51.230;4.012;2023-04-03T12:30:26;12.80;93.10
23544;DHT22;11950;51.230;4.012;2023-04-03T12:33:05;12.80;93.20
23544;DHT22;11950;51.230;4.012;2023-04-03T12:38:37;12.80;90.40
23544;DHT22;11950;51.230;4.012;2023-04-03T12:46:45;12.80;89.30
23544;DHT22;11950;51.230;4.012;2023-04-03T12:49:26;12.70;87.40
23544;DHT22;11950;51.230;4.012;2023-04-03T12:51:57;12.70;87.60
23544;DHT22;11950;51.230;4.012;2023-04-03T12:57:29;12.70;88.10
23544;DHT22;11950;51.230;4.012;2023-04-03T12:59:56;12.90;88.90
23544;DHT22;11950;51.230;4.012;2023-04-03T13:02:31;12.80;88.30
23544;DHT22;11950;51.230;4.012;2023-04-03T13:05:06;12.80;89.50
23544;DHT22;11950;51.230;4.012;2023-04-03T13:07:37;12.90;89.70
23544;DHT22;11950;51.230;4.012;2023-04-03T13:12:35;12.90;85.50
23544;DHT22;11950;51.230;4.012;2023-04-03T13:15:26;12.90;88.40
23544;DHT22;11950;51.230;4.012;2023-04-03T13:17:53;13.00;87.00
23544;DHT22;11950;51.230;4.012;2023-04-03T13:20:21;13.00;85.00
23544;DHT22;11950;51.230;4.012;2023-04-03T13:22:55;13.00;85.40
23544;DHT22;11950;51.230;4.012;2023-04-03T13:25:24;13.00;83.70
23544;DHT22;11950;51.230;4.012;2023-04-03T13:27:52;12.80;80.60
23544;DHT22;11950;51.230;4.012;2023-04-03T13:30:29;12.90;83.70
23544;DHT22;11950;51.230;4.012;2023-04-03T13:32:57;12.80;82.70
23544;DHT22;11950;51.230;4.012;2023-04-03T13:35:44;12.80;85.10
23544;DHT22;11950;51.230;4.012;2023-04-03T13:40:51;12.80;83.30
23544;DHT22;11950;51.230;4.012;2023-04-03T13:43:22;12.80;82.60
23544;DHT22;11950;51.230;4.012;2023-04-03T13:48:25;12.90;82.70
23544;DHT22;11950;51.230;4.012;2023-04-03T13:51:01;12.90;81.90
23544;DHT22;11950;51.230;4.012;2023-04-03T13:53:29;12.80;80.70
23544;DHT22;11950;51.230;4.012;2023-04-03T13:58:30;12.70;81.30
23544;DHT22;11950;51.230;4.012;2023-04-03T14:01:06;12.70;83.80
23544;DHT22;11950;51.230;4.012;2023-04-03T14:06:32;12.70;85.20
23544;DHT22;11950;51.230;4.012;2023-04-03T14:08:59;12.80;84.90
23544;DHT22;11950;51.230;4.012;2023-04-03T14:11:29;12.70;81.90
23544;DHT22;11950;51.230;4.012;2023-04-03T14:14:00;12.70;81.90
23544;DHT22;11950;51.230;4.012;2023-04-03T14:16:30;12.60;82.30
23544;DHT22;11950;51.230;4.012;2023-04-03T14:18:58;12.70;83.30
23544;DHT22;11950;51.230;4.012;2023-04-03T14:21:24;12.80;82.50
23544;DHT22;11950;51.230;4.012;2023-04-03T14:23:51;12.80;82.90
23544;DHT22;11950;51.230;4.012;2023-04-03T14:26:20;12.80;83.70
23544;DHT22;11950;51.230;4.012;2023-04-03T14:28:49;12.80;80.90
23544;DHT22;11950;51.230;4.012;2023-04-03T14:31:16;12.70;81.30
23544;DHT22;11950;51.230;4.012;2023-04-03T14:33:44;12.80;82.80
23544;DHT22;11950;51.230;4.012;2023-04-03T14:36:17;12.70;77.20
23544;DHT22;11950;51.230;4.012;2023-04-03T14:38:45;12.60;78.30
23544;DHT22;11950;51.230;4.012;2023-04-03T14:41:17;12.50;76.30
23544;DHT22;11950;51.230;4.012;2023-04-03T14:43:45;12.50;79.10
23544;DHT22;11950;51.230;4.012;2023-04-03T14:46:17;12.60;77.20
23544;DHT22;11950;51.230;4.012;2023-04-03T14:48:45;12.70;76.60
23544;DHT22;11950;51.230;4.012;2023-04-03T14:51:13;12.80;79.00
23544;DHT22;11950;51.230;4.012;2023-04-03T14:53:41;12.70;78.60
23544;DHT22;11950;51.230;4.012;2023-04-03T14:58:38;12.60;77.60
23544;DHT22;11950;51.230;4.012;2023-04-03T15:01:05;12.60;78.60
23544;DHT22;11950;51.230;4.012;2023-04-03T15:03:31;12.60;77.70
23544;DHT22;11950;51.230;4.012;2023-04-03T15:05:58;12.60;76.70
23544;DHT22;11950;51.230;4.012;2023-04-03T15:08:26;12.50;77.00
23544;DHT22;11950;51.230;4.012;2023-04-03T15:10:55;12.60;78.30
23544;DHT22;11950;51.230;4.012;2023-04-03T15:13:23;12.50;77.80
23544;DHT22;11950;51.230;4.012;2023-04-03T15:15:50;12.50;75.30
23544;DHT22;11950;51.230;4.012;2023-04-03T15:18:21;12.40;76.10
23544;DHT22;11950;51.230;4.012;2023-04-03T15:20:48;12.50;79.50
23544;DHT22;11950;51.230;4.012;2023-04-03T15:23:15;12.60;79.40
23544;DHT22;11950;51.230;4.012;2023-04-03T15:25:43;12.60;76.90
23544;DHT22;11950;51.230;4.012;2023-04-03T15:30:50;12.50;78.00
23544;DHT22;11950;51.230;4.012;2023-04-03T15:33:17;12.50;75.20
23544;DHT22;11950;51.230;4.012;2023-04-03T15:35:43;12.50;75.00
23544;DHT22;11950;51.230;4.012;2023-04-03T15:38:10;12.50;74.40
23544;DHT22;11950;51.230;4.012;2023-04-03T15:40:36;12.40;73.00
23544;DHT22;11950;51.230;4.012;2023-04-03T15:43:05;12.40;74.50
23544;DHT22;11950;51.230;4.012;2023-04-03T15:45:32;12.40;75.70
23544;DHT22;11950;51.230;4.012;2023-04-03T15:47:59;12.40;73.80
23544;DHT22;11950;51.230;4.012;2023-04-03T15:50:26;12.40;73.90
23544;DHT22;11950;51.230;4.012;2023-04-03T15:52:52;12.40;74.20
23544;DHT22;11950;51.230;4.012;2023-04-03T15:55:22;12.30;73.00
23544;DHT22;11950;51.230;4.012;2023-04-03T15:57:49;12.20;73.20
23544;DHT22;11950;51.230;4.012;2023-04-03T16:00:16;12.20;74.60
23544;DHT22;11950;51.230;4.012;2023-04-03T16:02:45;12.20;76.80
23544;DHT22;11950;51.230;4.012;2023-04-03T16:05:12;12.30;73.20
23544;DHT22;11950;51.230;4.012;2023-04-03T16:07:39;12.30;73.40
23544;DHT22;11950;51.230;4.012;2023-04-03T16:10:07;12.30;74.30
23544;DHT22;11950;51.230;4.012;2023-04-03T16:12:34;12.30;74.50
23544;DHT22;11950;51.230;4.012;2023-04-03T16:15:01;12.20;75.40
23544;DHT22;11950;51.230;4.012;2023-04-03T16:17:28;12.30;79.30
23544;DHT22;11950;51.230;4.012;2023-04-03T16:19:54;12.30;77.50
23544;DHT22;11950;51.230;4.012;2023-04-03T16:22:23;12.30;75.80
23544;DHT22;11950;51.230;4.012;2023-04-03T16:24:50;12.30;79.60
23544;DHT22;11950;51.230;4.012;2023-04-03T16:27:17;12.30;77.80
23544;DHT22;11950;51.230;4.012;2023-04-03T16:29:43;12.30;77.10
23544;DHT22;11950;51.230;4.012;2023-04-03T16:32:09;12.30;77.30
23544;DHT22;11950;51.230;4.012;2023-04-03T16:34:36;12.30;77.40
23544;DHT22;11950;51.230;4.012;2023-04-03T16:37:02;12.20;78.70
23544;DHT22;11950;51.230;4.012;2023-04-03T16:39:28;12.30;80.70
23544;DHT22;11950;51.230;4.012;2023-04-03T16:41:55;12.10;79.30
23544;DHT22;11950;51.230;4.012;2023-04-03T16:44:21;12.00;81.40
23544;DHT22;11950;51.230;4.012;2023-04-03T16:46:48;12.00;82.40
23544;DHT22;11950;51.230;4.012;2023-04-03T16:49:14;12.00;83.40
23544;DHT22;11950;51.230;4.012;2023-04-03T16:51:41;12.00;83.60
23544;DHT22;11950;51.230;4.012;2023-04-03T16:54:07;12.00;83.80
23544;DHT22;11950;51.230;4.012;2023-04-03T16:56:36;12.00;84.30
23544;DHT22;11950;51.230;4.012;2023-04-03T16:59:03;12.00;83.60
23544;DHT22;11950;51.230;4.012;2023-04-03T17:01:29;12.00;83.50
23544;DHT22;11950;51.230;4.012;2023-04-03T17:03:55;12.00;85.00
23544;DHT22;11950;51.230;4.012;2023-04-03T17:06:21;11.90;84.50
23544;DHT22;11950;51.230;4.012;2023-04-03T17:08:51;11.90;83.80
23544;DHT22;11950;51.230;4.012;2023-04-03T17:11:27;11.90;83.90
23544;DHT22;11950;51.230;4.012;2023-04-03T17:13:53;11.80;86.90
23544;DHT22;11950;51.230;4.012;2023-04-03T17:16:22;11.80;87.00
23544;DHT22;11950;51.230;4.012;2023-04-03T17:18:49;11.80;85.30
23544;DHT22;11950;51.230;4.012;2023-04-03T17:21:16;11.70;86.80
23544;DHT22;11950;51.230;4.012;2023-04-03T17:23:46;11.60;86.20
23544;DHT22;11950;51.230;4.012;2023-04-03T17:26:13;11.50;87.30
23544;DHT22;11950;51.230;4.012;2023-04-03T17:28:39;11.50;86.00
23544;DHT22;11950;51.230;4.012;2023-04-03T17:31:06;11.40;86.80
23544;DHT22;11950;51.230;4.012;2023-04-03T17:33:33;11.40;88.50
23544;DHT22;11950;51.230;4.012;2023-04-03T17:36:00;11.30;88.20
23544;DHT22;11950;51.230;4.012;2023-04-03T17:38:30;11.30;87.80
23544;DHT22;11950;51.230;4.012;2023-04-03T17:40:58;11.30;90.10
23544;DHT22;11950;51.230;4.012;2023-04-03T17:43:25;11.20;88.40